Matsuyama Airport, Japan

9:01 AM JST on February 28, 2015 (GMT +0900)
Matsuyama | Change Station
CLOSE
Current Station
Airport
Location: Matsuyama Airport,
Elevation: 23 ft
Nearby Weather Stations

Elev 23 ft 33.83 °N, 132.70 °E | Updated 1 hour ago

Partly Cloudy
Partly Cloudy
41 °F
Feels Like 35 °F
N
9
Wind Variable Wind from NE

Today
High -- | Low -- °F
--% Chance of Precip.
Yesterday
High -- | Low -- °F
Precip. -- in
6:40 AM 6:04 PM
Waxing Gibbous, 72% visible
Pressure 30.33 in
Visibility 6.2 miles
Clouds Few 3000 ft
Windchill 35 °F
Dew Point 28 °F
Humidity 61%
Rainfall 0.00 in
Snow Depth Not available.
UV 1 out of 12
Pollen Not available.
Air Quality Not available.
Flu Activity Not available.
METAR RJOM 272300Z 05008KT 9999 FEW030 05/M02 Q1027

More Conditions Fewer Conditions

Pressure 30.33 in
Visibility 6.2 miles
Clouds Few 3000 ft
Windchill 35 °F
Dew Point 28 °F
Humidity 61%
Rainfall 0.00 in
Snow Depth Not available.
UV 1 out of 12
Pollen Not available.
Air Quality Not available.
Flu Activity Not available.
METAR RJOM 272300Z 05008KT 9999 FEW030 05/M02 Q1027

More Conditions Fewer Conditions

10-Day Weather Forecast

Almanac

Astronomy

Feb. 28, 2015 Rise Set
Actual Time
Civil Twilight
Nautical Twilight
Astronomical Twilight
Moon
Length of Visible Light
Length of Day
Tomorrow will be .
, % of the Moon is Illuminated

Today's Extremes

Country Highs Country Lows

Community

WunderPhotos

Upload Photos

1,800,883 photos uploaded!

WunderBlogs® & News

Nearby

Air Quality

  Air Quality AQ Index Pollutant
Not available.

Snow Depth

Station Depth Elevation

Earthquake Activity

City Distance Mag. Time & Date
Minimum magnitude displayed is 2.5.

Coastal Water Temperatures

Place Temperature

Nearby Weather Stations